Time;durP1;ratioP1;P1;durP2;ratioP2;P2;SDS_P1;SDS_P2;PMS_P1;PMS_P2;Temp;Humidity;BMP_temperature;BMP_pressure;BME280_temperature;BME280_humidity;BME280_pressure;Samples;Min_cycle;Max_cycle;Signal;HPM_P1;HPM_P2
2022/12/06 00:00:51;;;;;;;31.77;17.50;;;4.00;99.90;;;2.76;100.00;97552.69;5113453;28;20897;-75
2022/12/06 00:03:17;;;;;;;30.47;17.07;;;4.00;99.90;;;2.77;100.00;97549.09;5112695;28;20485;-77
2022/12/06 00:05:43;;;;;;;29.40;16.35;;;4.00;99.90;;;2.80;100.00;97548.66;5113781;28;20479;-75
2022/12/06 00:08:09;;;;;;;29.40;16.98;;;4.00;99.90;;;2.79;100.00;97554.91;5113604;28;20743;-74
2022/12/06 00:10:35;;;;;;;33.03;16.83;;;4.00;99.90;;;2.81;100.00;97543.25;5113145;28;20517;-76
2022/12/06 00:13:02;;;;;;;30.92;17.10;;;4.00;99.90;;;2.82;100.00;97541.44;5112571;28;20408;-74
2022/12/06 00:15:29;;;;;;;33.05;17.33;;;4.00;99.90;;;2.79;100.00;97550.47;5113249;28;20405;-75
2022/12/06 00:17:56;;;;;;;29.73;16.02;;;4.00;99.90;;;2.79;100.00;97554.91;5112259;28;20423;-75
2022/12/06 00:20:22;;;;;;;27.98;15.35;;;4.00;99.90;;;2.81;100.00;97552.91;5113127;28;20429;-76
2022/12/06 00:22:48;;;;;;;26.67;16.00;;;4.00;99.90;;;2.78;100.00;97554.13;5112398;28;20471;-75
2022/12/06 00:25:14;;;;;;;28.67;15.93;;;4.00;99.90;;;2.82;100.00;97557.13;5113436;28;20462;-75
2022/12/06 00:27:40;;;;;;;27.50;15.50;;;4.00;99.90;;;2.78;100.00;97553.31;5113161;28;20411;-75
2022/12/06 00:30:07;;;;;;;27.23;14.45;;;4.00;99.90;;;2.77;100.00;97549.09;5113176;28;20396;-75
2022/12/06 00:32:33;;;;;;;31.63;16.03;;;4.00;99.90;;;2.75;100.00;97538.81;5113005;28;20639;-75
2022/12/06 00:35:01;;;;;;;26.02;15.07;;;4.00;99.90;;;2.73;100.00;97536.41;5112340;28;20408;-75
2022/12/06 00:37:27;;;;;;;27.83;14.82;;;4.00;99.90;;;2.74;100.00;97534.59;5113401;28;20423;-75
2022/12/06 00:39:53;;;;;;;26.38;15.18;;;4.00;99.90;;;2.67;100.00;97534.56;5113146;28;20927;-75
2022/12/06 00:42:19;;;;;;;29.45;15.68;;;3.90;99.90;;;2.62;100.00;97528.34;5112921;28;20416;-75
2022/12/06 00:44:44;;;;;;;29.02;15.57;;;3.90;99.90;;;2.57;100.00;97525.50;5112720;28;20487;-75
2022/12/06 00:47:11;;;;;;;23.53;12.90;;;3.80;99.90;;;2.55;100.00;97525.72;5113036;28;20923;-75
2022/12/06 00:49:37;;;;;;;26.38;15.02;;;3.80;99.90;;;2.51;100.00;97532.31;5113053;28;20800;-75
2022/12/06 00:52:04;;;;;;;20.02;10.82;;;3.80;99.90;;;2.49;100.00;97530.88;5112746;28;20408;-75
2022/12/06 00:54:30;;;;;;;26.25;15.25;;;3.70;99.90;;;2.45;100.00;97530.50;5111984;28;20404;-75
2022/12/06 00:56:56;;;;;;;26.37;15.33;;;3.70;99.90;;;2.45;100.00;97529.69;5112601;28;20435;-75
2022/12/06 00:59:21;;;;;;;27.05;15.60;;;3.70;99.90;;;2.41;100.00;97528.44;5112619;28;20903;-75
2022/12/06 01:01:47;;;;;;;27.40;14.90;;;3.70;99.90;;;2.38;100.00;97528.84;5112476;28;20483;-75
2022/12/06 01:04:13;;;;;;;23.97;14.63;;;3.60;99.90;;;2.32;100.00;97536.47;5111484;28;20881;-75
2022/12/06 01:06:39;;;;;;;27.48;14.20;;;3.60;99.90;;;2.29;100.00;97529.03;5112407;28;20444;-75
2022/12/06 01:09:09;;;;;;;26.60;15.00;;;3.60;99.90;;;2.25;100.00;97527.81;5112421;28;20414;-75
2022/12/06 01:11:36;;;;;;;26.25;14.10;;;3.50;99.90;;;2.25;100.00;97527.81;5111953;28;20404;-75
2022/12/06 01:14:02;;;;;;;26.40;15.32;;;3.50;99.90;;;2.25;100.00;97527.00;5110181;28;20408;-75
2022/12/06 01:16:30;;;;;;;25.65;14.82;;;3.50;99.90;;;2.26;100.00;97524.19;5112143;28;20407;-75
2022/12/06 01:18:59;;;;;;;29.15;15.95;;;3.50;99.90;;;2.28;100.00;97534.44;5111987;28;20424;-76
2022/12/06 01:21:26;;;;;;;25.95;15.63;;;3.60;99.90;;;2.26;100.00;97532.00;5111683;28;20392;-76
2022/12/06 01:23:55;;;;;;;29.17;15.55;;;3.50;99.90;;;2.26;100.00;97533.81;5111129;28;20400;-76
2022/12/06 01:26:25;;;;;;;23.05;14.27;;;3.50;99.90;;;2.24;100.00;97528.00;5112012;28;20501;-76
2022/12/06 01:28:51;;;;;;;23.70;13.43;;;3.50;99.90;;;2.22;100.00;97533.41;5127600;27;20403;-76
2022/12/06 01:31:18;;;;;;;20.90;12.98;;;3.50;99.90;;;2.22;100.00;97535.22;5111791;28;20401;-76
2022/12/06 01:33:44;;;;;;;22.92;13.50;;;3.50;99.90;;;2.22;100.00;97532.59;5111005;28;20450;-76
2022/12/06 01:36:16;;;;;;;23.38;13.73;;;3.50;99.90;;;2.23;100.00;97529.81;5110894;28;20400;-75
2022/12/06 01:38:42;;;;;;;21.05;12.70;;;3.50;99.90;;;2.26;100.00;97532.00;5111714;28;20505;-75
2022/12/06 01:41:08;;;;;;;24.13;13.67;;;3.50;99.90;;;2.28;100.00;97534.44;5111409;28;20470;-76
2022/12/06 01:43:39;;;;;;;22.08;13.00;;;3.50;99.90;;;2.29;100.00;97531.63;5110837;28;20947;-76
2022/12/06 01:46:19;;;;;;;24.40;13.93;;;3.60;99.90;;;2.30;100.00;97522.81;5111789;28;20392;-76
2022/12/06 01:48:45;;;;;;;26.23;13.93;;;3.60;99.90;;;2.32;100.00;97518.19;5111341;28;20426;-76
2022/12/06 01:51:13;;;;;;;22.67;13.20;;;3.60;99.90;;;2.35;100.00;97530.03;5111403;28;20401;-76
2022/12/06 01:53:41;;;;;;;21.42;12.88;;;3.60;99.90;;;2.34;100.00;97524.00;5110569;28;20421;-76
2022/12/06 01:56:07;;;;;;;25.98;15.23;;;3.60;99.90;;;2.33;100.00;97522.41;5127402;27;20965;-76
2022/12/06 01:58:39;;;;;;;26.40;14.80;;;3.60;99.90;;;2.32;100.00;97514.78;5110882;28;20449;-76
2022/12/06 02:01:08;;;;;;;21.10;13.32;;;3.60;99.90;;;2.31;100.00;97515.78;5111245;28;20388;-76
2022/12/06 02:03:35;;;;;;;25.10;13.77;;;3.60;99.90;;;2.32;100.00;97512.97;5110443;28;20389;-76
2022/12/06 02:06:03;;;;;;;27.58;15.10;;;3.60;99.90;;;2.37;100.00;97515.00;5110541;28;20472;-76
2022/12/06 02:08:30;;;;;;;30.58;15.55;;;3.60;99.90;;;2.38;100.00;97515.78;5111126;28;20431;-76
2022/12/06 02:10:57;;;;;;;25.83;14.40;;;3.60;99.90;;;2.39;100.00;97515.59;5110992;28;20412;-76
2022/12/06 02:13:24;;;;;;;25.67;14.13;;;3.70;99.90;;;2.41;100.00;97515.38;5110312;28;20898;-76
2022/12/06 02:16:09;;;;;;;26.10;14.45;;;3.70;99.90;;;2.42;100.00;97520.41;5111077;28;20483;-76
2022/12/06 02:18:46;;;;;;;22.83;13.95;;;3.70;99.90;;;2.42;100.00;97512.59;5111059;28;20516;-76
2022/12/06 02:21:22;;;;;;;25.58;14.25;;;3.70;99.90;;;2.43;100.00;97508.16;5110888;28;20547;-76
2022/12/06 02:24:46;;;;;;;22.45;13.75;;;3.70;99.90;;;2.44;100.00;97502.75;5110121;28;20392;-76
2022/12/06 02:27:52;;;;;;;28.90;15.27;;;3.70;99.90;;;2.44;100.00;97499.34;5110957;28;20404;-75
2022/12/06 02:30:40;;;;;;;22.55;13.20;;;3.70;99.90;;;2.46;100.00;97499.94;5109689;28;20427;-75
2022/12/06 02:33:14;;;;;;;24.15;13.27;;;3.70;99.90;;;2.45;100.00;97504.38;5110003;27;20471;-75
2022/12/06 02:35:47;;;;;;;26.40;14.20;;;3.70;99.90;;;2.46;100.00;97498.16;5110672;28;21004;-76
2022/12/06 02:38:18;;;;;;;25.77;14.05;;;3.70;99.90;;;2.46;100.00;97492.91;5110991;28;20474;-76
2022/12/06 02:40:48;;;;;;;26.40;14.55;;;3.70;99.90;;;2.44;100.00;97488.88;5110014;28;20430;-76
2022/12/06 02:43:20;;;;;;;27.40;15.05;;;3.70;99.90;;;2.42;100.00;97498.72;5109744;28;20953;-75
2022/12/06 02:45:52;;;;;;;19.92;12.60;;;3.70;99.90;;;2.40;100.00;97496.31;5110724;28;20532;-75
2022/12/06 02:48:20;;;;;;;22.98;12.60;;;3.60;99.90;;;2.42;100.00;97503.94;5110526;28;20463;-75
2022/12/06 02:50:52;;;;;;;24.15;13.05;;;3.70;99.90;;;2.43;100.00;97492.50;5110435;28;20400;-75
2022/12/06 02:53:20;;;;;;;22.45;13.68;;;3.70;99.90;;;2.44;100.00;97504.56;5109525;28;20441;-75
2022/12/06 02:55:49;;;;;;;20.92;12.85;;;3.70;99.90;;;2.42;100.00;97493.50;5110476;28;20873;-75
2022/12/06 02:58:15;;;;;;;22.83;12.43;;;3.70;99.90;;;2.41;100.00;97492.69;5110404;28;20453;-74
2022/12/06 03:00:44;;;;;;;19.70;10.98;;;3.70;99.90;;;2.45;100.00;97493.91;5110281;28;20808;-75
2022/12/06 03:03:53;;;;;;;18.45;11.55;;;3.70;99.90;;;2.47;100.00;97496.34;5125354;27;20822;-75
2022/12/06 03:07:03;;;;;;;19.85;11.13;;;3.70;99.90;;;2.51;100.00;97494.94;5126163;28;20435;-75
2022/12/06 03:09:51;;;;;;;20.67;11.80;;;3.70;99.90;;;2.53;100.00;97487.72;5103312;28;20443;-76
2022/12/06 03:12:27;;;;;;;19.77;11.80;;;3.80;99.90;;;2.53;100.00;97488.50;5110081;28;20448;-75
2022/12/06 03:15:06;;;;;;;19.52;11.40;;;3.80;99.90;;;2.54;100.00;97492.75;5108308;28;20464;-76
2022/12/06 03:17:39;;;;;;;21.15;12.25;;;3.80;99.90;;;2.54;100.00;97492.75;5110170;28;20392;-76
2022/12/06 03:20:14;;;;;;;18.13;11.00;;;3.80;99.90;;;2.56;100.00;97482.88;5110203;28;20898;-76
2022/12/06 03:22:47;;;;;;;18.77;11.27;;;3.80;99.90;;;2.57;100.00;97483.69;5125417;27;20758;-76
2022/12/06 03:25:13;;;;;;;18.88;10.70;;;3.80;99.90;;;2.59;100.00;97486.91;5110215;28;20403;-76
2022/12/06 03:27:41;;;;;;;17.48;11.20;;;3.80;99.90;;;2.57;100.00;97483.69;5110125;28;20420;-76
2022/12/06 03:30:11;;;;;;;19.97;11.63;;;3.80;99.90;;;2.57;100.00;97479.25;5110236;28;20396;-76
2022/12/06 03:32:42;;;;;;;17.70;10.60;;;3.80;99.90;;;2.54;100.00;97474.44;5109704;28;20628;-76
2022/12/06 03:35:13;;;;;;;17.67;10.57;;;3.80;99.90;;;2.57;100.00;97483.69;5109867;28;20436;-75
2022/12/06 03:37:43;;;;;;;18.55;11.25;;;3.80;99.90;;;2.56;100.00;97477.66;5110150;28;20448;-75
2022/12/06 03:40:15;;;;;;;17.88;10.55;;;3.80;99.90;;;2.54;100.00;97468.41;5110046;28;20446;-75
2022/12/06 03:42:42;;;;;;;15.68;9.85;;;3.80;99.90;;;2.55;100.00;97468.22;5108987;28;20495;-75
2022/12/06 03:45:11;;;;;;;18.27;10.80;;;3.80;99.90;;;2.55;100.00;97465.63;5109797;28;20409;-75
2022/12/06 03:47:46;;;;;;;17.92;11.07;;;3.80;99.90;;;2.56;100.00;97472.44;5110058;28;20505;-75
2022/12/06 03:50:20;;;;;;;19.00;10.90;;;3.80;99.90;;;2.57;100.00;97470.63;5109985;28;20448;-74
2022/12/06 03:52:49;;;;;;;19.80;11.07;;;3.80;99.90;;;2.56;100.00;97469.00;5110499;28;20443;-75
2022/12/06 03:55:14;;;;;;;17.38;10.48;;;3.80;99.90;;;2.56;100.00;97469.81;5113791;28;20532;-75
2022/12/06 03:57:40;;;;;;;17.42;10.57;;;3.80;99.90;;;2.55;100.00;97462.19;5113792;28;20948;-75
2022/12/06 04:00:08;;;;;;;21.45;12.50;;;3.80;99.90;;;2.52;100.00;97470.41;5114063;28;20396;-76
2022/12/06 04:02:34;;;;;;;19.20;11.35;;;3.80;99.90;;;2.50;100.00;97472.41;5113682;28;20675;-76
2022/12/06 04:05:00;;;;;;;19.50;12.33;;;3.70;99.90;;;2.49;100.00;97469.00;5113194;28;20396;-75
2022/12/06 04:07:27;;;;;;;21.45;13.02;;;3.70;99.90;;;2.48;100.00;97469.22;5113962;28;20458;-76
2022/12/06 04:10:01;;;;;;;23.00;12.38;;;3.70;99.90;;;2.43;100.00;97461.94;5114350;28;20396;-76
2022/12/06 04:15:12;;;;;;;21.90;12.55;;;3.60;99.90;;;2.42;100.00;97451.69;5114158;28;20435;-75
2022/12/06 04:20:23;;;;;;;24.63;13.45;;;3.70;99.90;;;2.45;100.00;97451.31;5113629;28;20446;-76
2022/12/06 04:23:03;;;;;;;25.55;14.05;;;3.70;99.90;;;2.46;100.00;97448.50;5112487;28;20880;-76
2022/12/06 04:25:29;;;;;;;22.08;12.57;;;3.70;99.90;;;2.46;100.00;97439.88;5113435;28;20453;-76
2022/12/06 04:38:55;;;;;;;27.30;15.18;;;3.70;99.90;;;2.43;100.00;97435.03;5112987;28;20469;-76
2022/12/06 04:44:06;;;;;;;34.15;16.13;;;3.70;99.90;;;2.43;100.00;97435.81;5091043;28;20450;-71
2022/12/06 04:46:32;;;;;;;32.35;16.38;;;3.70;99.90;;;2.46;100.00;97430.22;5087573;28;20407;-71
2022/12/06 04:48:58;;;;;;;32.95;16.92;;;3.70;99.90;;;2.49;100.00;97431.63;5089742;28;20421;-72
2022/12/06 04:51:25;;;;;;;34.78;17.65;;;3.70;99.90;;;2.50;100.00;97420.97;5091057;28;20394;-71
2022/12/06 04:53:55;;;;;;;37.33;19.05;;;3.70;99.90;;;2.52;100.00;97426.81;5085081;28;20897;-71
2022/12/06 04:56:21;;;;;;;39.28;19.55;;;3.70;99.90;;;2.53;100.00;97423.19;5077257;28;20410;-70
2022/12/06 04:58:47;;;;;;;36.03;17.80;;;3.80;99.90;;;2.53;100.00;97404.09;5071277;28;20408;-71
2022/12/06 05:01:13;;;;;;;37.30;17.65;;;3.80;99.90;;;2.57;100.00;97423.59;5071671;28;20495;-71
2022/12/06 05:03:39;;;;;;;34.80;17.95;;;3.80;99.90;;;2.61;100.00;97417.78;5070703;28;20423;-71
2022/12/06 05:06:06;;;;;;;32.07;16.10;;;3.80;99.90;;;2.60;100.00;97420.59;5071295;28;20404;-71
2022/12/06 05:08:32;;;;;;;26.35;14.60;;;3.80;99.90;;;2.60;100.00;97426.63;5071638;28;20433;-71
2022/12/06 05:10:59;;;;;;;25.60;14.50;;;3.80;99.90;;;2.64;100.00;97421.78;5077171;28;20483;-72
2022/12/06 05:13:25;;;;;;;28.02;14.98;;;3.90;99.90;;;2.62;100.00;97418.59;5079665;28;20433;-71
2022/12/06 05:15:53;;;;;;;25.58;14.45;;;3.90;99.90;;;2.63;100.00;97417.59;5094950;28;20457;-71
2022/12/06 05:18:19;;;;;;;22.42;12.98;;;3.90;99.90;;;2.64;100.00;97421.78;5081196;28;20837;-71
2022/12/06 05:20:45;;;;;;;26.70;13.13;;;3.90;99.90;;;2.65;100.00;97424.19;5072237;28;20456;-71
2022/12/06 05:23:11;;;;;;;22.15;13.77;;;3.90;99.90;;;2.63;100.00;97425.44;5089212;28;20404;-72
2022/12/06 05:25:37;;;;;;;23.98;13.02;;;3.90;99.90;;;2.64;100.00;97425.19;5087499;28;20418;-71
2022/12/06 05:28:05;;;;;;;22.52;12.23;;;3.90;99.90;;;2.66;100.00;97420.59;5082329;28;20403;-73
2022/12/06 05:30:31;;;;;;;23.33;12.65;;;3.90;99.90;;;2.67;100.00;97434.47;5083403;28;20429;-74
2022/12/06 05:32:57;;;;;;;22.10;12.63;;;3.90;99.90;;;2.66;100.00;97423.19;5075056;28;22234;-73
2022/12/06 05:35:23;;;;;;;23.13;12.57;;;3.90;99.90;;;2.70;100.00;97423.63;5083003;28;20995;-73
2022/12/06 05:37:49;;;;;;;23.08;13.65;;;3.90;99.90;;;2.66;100.00;97420.59;5086748;28;20768;-73
2022/12/06 05:40:15;;;;;;;20.45;12.20;;;3.90;99.90;;;2.68;100.00;97425.63;5084847;28;20507;-73
2022/12/06 05:42:41;;;;;;;21.75;12.50;;;3.90;99.90;;;2.66;100.00;97425.00;5090415;28;20492;-73
2022/12/06 05:45:10;;;;;;;23.60;12.48;;;3.90;99.90;;;2.64;100.00;97419.97;5090911;28;20406;-73
2022/12/06 05:47:36;;;;;;;21.00;12.23;;;3.90;99.90;;;2.66;100.00;97423.19;5091422;28;20496;-73
2022/12/06 05:50:02;;;;;;;23.00;13.27;;;3.90;99.90;;;2.70;100.00;97423.63;5091318;28;20481;-73
2022/12/06 05:52:28;;;;;;;20.25;12.52;;;3.90;99.90;;;2.60;100.00;97421.41;5087345;28;20422;-73
2022/12/06 05:54:54;;;;;;;18.85;11.60;;;3.80;99.90;;;2.63;100.00;97420.97;5080126;28;20430;-73
2022/12/06 05:57:20;;;;;;;21.40;12.53;;;3.80;99.90;;;2.61;100.00;97419.59;5070859;28;20824;-72
2022/12/06 05:59:46;;;;;;;20.13;12.45;;;3.80;99.90;;;2.60;100.00;97415.34;5070720;28;20484;-73
2022/12/06 06:02:13;;;;;;;18.90;11.85;;;3.80;99.90;;;2.56;100.00;97420.16;5070617;28;20444;-73
2022/12/06 06:04:39;;;;;;;21.33;12.65;;;3.80;99.90;;;2.64;100.00;97425.19;5069500;28;20442;-73
2022/12/06 06:07:05;;;;;;;19.00;11.88;;;3.80;99.90;;;2.62;100.00;97424.63;5083275;28;20434;-73
2022/12/06 06:09:31;;;;;;;20.67;13.00;;;3.80;99.90;;;2.75;100.00;97429.03;5090976;28;20429;-74
2022/12/06 06:11:57;;;;;;;19.70;12.23;;;4.00;99.90;;;2.72;100.00;97422.41;5090393;28;20394;-73
2022/12/06 06:14:23;;;;;;;19.35;12.73;;;4.00;99.90;;;2.63;100.00;97422.81;5089612;28;20810;-73
2022/12/06 06:16:50;;;;;;;19.08;12.20;;;3.90;99.90;;;2.61;100.00;97424.81;5088864;28;20434;-72
2022/12/06 06:19:18;;;;;;;17.92;11.43;;;3.80;99.90;;;2.60;100.00;97426.63;5080548;28;20486;-71
2022/12/06 06:21:44;;;;;;;19.80;11.30;;;3.80;99.90;;;2.60;100.00;97423.19;5089220;28;20405;-71
2022/12/06 06:24:09;;;;;;;17.48;12.13;;;3.80;99.90;;;2.52;100.00;97415.56;5089232;28;20917;-73
2022/12/06 06:26:35;;;;;;;20.20;11.67;;;3.70;99.90;;;2.56;100.00;97420.16;5090442;28;20398;-73
2022/12/06 06:29:01;;;;;;;20.65;12.23;;;3.80;99.90;;;2.62;100.00;97415.97;5090649;28;20886;-73
2022/12/06 06:31:27;;;;;;;19.75;12.10;;;3.80;99.90;;;2.56;100.00;97416.75;5090382;28;20484;-73
2022/12/06 06:33:53;;;;;;;18.30;11.37;;;3.70;99.90;;;2.59;100.00;97421.59;5089639;28;20468;-73
2022/12/06 06:36:20;;;;;;;24.10;13.05;;;3.80;99.90;;;2.52;100.00;97413.75;5090044;28;20401;-72
2022/12/06 06:38:46;;;;;;;18.48;11.57;;;3.80;99.90;;;2.56;100.00;97416.75;5090324;28;20401;-73
2022/12/06 06:41:12;;;;;;;19.73;11.80;;;3.80;99.90;;;2.56;100.00;97408.91;5090077;28;20402;-73
2022/12/06 06:43:38;;;;;;;18.40;12.45;;;3.80;99.90;;;2.52;100.00;97411.13;5089414;28;20402;-73
2022/12/06 06:46:06;;;;;;;19.20;12.82;;;3.80;99.90;;;2.52;100.00;97407.72;5090138;28;20425;-73
2022/12/06 06:48:35;;;;;;;21.50;11.97;;;3.70;99.90;;;2.56;100.00;97414.13;5090179;28;20398;-73
2022/12/06 06:51:02;;;;;;;19.75;11.65;;;3.70;99.90;;;2.58;100.00;97417.34;5089589;28;20405;-73
2022/12/06 06:53:30;;;;;;;22.60;12.13;;;3.80;99.90;;;2.60;100.00;97428.44;5078442;28;20415;-73
2022/12/06 06:55:56;;;;;;;20.98;12.40;;;3.80;99.90;;;2.63;100.00;97420.19;5089546;28;20583;-73
2022/12/06 06:58:22;;;;;;;20.73;12.15;;;3.80;99.90;;;2.59;100.00;97417.16;5089231;28;20825;-73
2022/12/06 07:00:52;;;;;;;26.45;12.95;;;3.80;99.90;;;2.57;100.00;97418.34;5088654;28;20445;-73
2022/12/06 07:03:19;;;;;;;18.45;11.45;;;3.80;99.90;;;2.62;100.00;97423.81;5088960;28;20427;-73
2022/12/06 07:05:51;;;;;;;19.63;11.07;;;3.80;99.90;;;2.63;100.00;97418.38;5069909;28;20412;-73
2022/12/06 07:08:16;;;;;;;18.45;10.95;;;3.90;99.90;;;2.65;100.00;97426.81;5071414;28;20475;-72
2022/12/06 07:10:47;;;;;;;19.35;11.10;;;3.90;99.90;;;2.67;100.00;97430.03;5083929;28;20410;-74
2022/12/06 07:13:13;;;;;;;17.38;10.05;;;3.90;99.90;;;2.69;100.00;97427.25;5084656;28;20788;-73
2022/12/06 07:15:39;;;;;;;19.47;11.13;;;3.90;99.90;;;2.69;100.00;97424.63;5079560;28;21928;-72
2022/12/06 07:18:05;;;;;;;17.15;10.55;;;3.90;99.90;;;2.70;100.00;97429.66;5080448;28;20441;-75
2022/12/06 07:20:31;;;;;;;22.13;12.98;;;3.90;99.90;;;2.69;100.00;97429.84;5080081;28;20414;-75
2022/12/06 07:22:57;;;;;;;18.38;11.55;;;3.90;99.90;;;2.72;100.00;97421.59;5086214;28;20406;-73
2022/12/06 07:25:23;;;;;;;18.58;11.25;;;4.00;99.90;;;2.71;100.00;97423.41;5082415;28;20427;-74
2022/12/06 07:27:50;;;;;;;20.23;11.77;;;3.90;99.90;;;2.72;100.00;97422.41;5088732;28;20408;-74
2022/12/06 07:30:17;;;;;;;19.92;11.20;;;4.00;99.90;;;2.73;100.00;97429.25;5089442;28;20408;-72
2022/12/06 07:32:42;;;;;;;19.50;11.05;;;4.00;99.90;;;2.73;100.00;97424.00;5087825;28;20457;-74
2022/12/06 07:35:09;;;;;;;20.85;11.40;;;4.00;99.90;;;2.76;100.00;97420.19;5093115;28;20450;-74
2022/12/06 07:37:35;;;;;;;21.37;11.93;;;4.00;99.90;;;2.79;100.00;97440.69;5093368;28;20401;-72
2022/12/06 07:40:02;;;;;;;20.55;11.73;;;4.00;99.90;;;2.75;100.00;97431.66;5071988;28;20427;-70
2022/12/06 07:45:14;;;;;;;20.15;11.18;;;3.90;99.90;;;2.72;100.00;97430.25;5072634;28;20998;-72
2022/12/06 07:47:42;;;;;;;20.33;11.40;;;4.00;99.90;;;2.73;100.00;97421.41;5072860;28;20925;-73
2022/12/06 07:50:11;;;;;;;18.92;10.68;;;4.00;99.90;;;2.76;100.00;97424.63;5073191;28;20806;-72
2022/12/06 07:52:37;;;;;;;19.48;11.18;;;4.00;99.90;;;2.78;100.00;97426.03;5072526;28;20428;-73
2022/12/06 07:55:06;;;;;;;20.80;11.80;;;4.00;99.90;;;2.80;100.00;97428.44;5072360;28;20403;-73
2022/12/06 07:57:32;;;;;;;18.95;12.05;;;4.00;99.90;;;2.81;100.00;97433.47;5072810;28;20815;-74
2022/12/06 07:59:58;;;;;;;23.25;13.40;;;4.00;99.90;;;2.80;100.00;97428.44;5072818;28;21177;-73
2022/12/06 08:02:28;;;;;;;19.95;11.20;;;4.00;99.90;;;2.73;100.00;97429.25;5084589;28;20398;-73
2022/12/06 08:04:54;;;;;;;18.73;11.45;;;4.00;99.90;;;2.80;100.00;97444.13;5092316;28;20931;-71
2022/12/06 08:07:21;;;;;;;17.70;10.80;;;4.00;99.90;;;2.83;100.00;97435.88;5096617;28;20397;-75
2022/12/06 08:09:47;;;;;;;16.33;10.57;;;4.00;99.90;;;2.78;100.00;97426.03;5093081;28;20406;-73
2022/12/06 08:12:13;;;;;;;17.40;10.55;;;4.00;99.90;;;2.89;100.00;97430.66;5092776;28;20445;-74
2022/12/06 08:14:39;;;;;;;18.65;10.73;;;4.10;99.90;;;2.85;100.00;97428.66;5091972;28;20926;-74
2022/12/06 08:17:06;;;;;;;20.25;10.70;;;4.00;99.90;;;2.84;100.00;97427.84;5108770;28;20441;-74
2022/12/06 08:19:33;;;;;;;14.73;9.73;;;4.00;99.90;;;2.87;100.00;97431.84;5092905;28;20413;-74
2022/12/06 08:21:59;;;;;;;14.85;9.88;;;4.10;99.90;;;2.87;100.00;97427.44;5092600;28;20758;-73
2022/12/06 08:24:25;;;;;;;18.15;10.30;;;4.10;99.90;;;2.88;100.00;97430.84;5092020;28;20819;-74
2022/12/06 08:26:52;;;;;;;14.20;9.70;;;4.10;99.90;;;2.89;100.00;97427.22;5092810;28;20402;-75
2022/12/06 08:29:18;;;;;;;14.73;9.80;;;4.10;99.90;;;2.92;100.00;97432.06;5092495;28;20495;-73
2022/12/06 08:31:44;;;;;;;14.35;9.35;;;4.20;99.90;;;2.95;100.00;97429.03;5092197;28;20410;-75
2022/12/06 08:34:11;;;;;;;15.27;9.63;;;4.20;99.90;;;2.99;100.00;97430.25;5091715;28;20435;-75
2022/12/06 08:36:40;;;;;;;16.00;9.70;;;4.20;99.90;;;3.02;100.00;97432.44;5092836;28;20436;-73
2022/12/06 08:39:08;;;;;;;15.52;9.68;;;4.20;99.90;;;3.04;100.00;97427.84;5091478;28;20435;-73
2022/12/06 08:44:19;;;;;;;17.13;10.80;;;4.20;99.90;;;3.02;100.00;97432.44;5091458;28;20484;-72
2022/12/06 08:46:46;;;;;;;16.53;9.93;;;4.20;99.90;;;3.06;100.00;97431.06;5092334;28;20408;-74
2022/12/06 08:49:14;;;;;;;13.77;9.55;;;4.20;99.90;;;3.07;100.00;97425.63;5092291;28;20416;-73
2022/12/06 08:51:42;;;;;;;16.40;10.07;;;4.30;99.90;;;3.14;100.00;97432.66;5091913;28;20405;-72
2022/12/06 08:54:13;;;;;;;17.67;12.07;;;4.30;99.90;;;3.14;100.00;97433.47;5091503;28;20531;-76
2022/12/06 08:56:39;;;;;;;17.75;11.18;;;4.30;99.90;;;3.18;100.00;97436.47;5092024;28;20436;-73
2022/12/06 08:59:05;;;;;;;17.17;11.32;;;4.40;99.90;;;3.22;100.00;97437.69;5092088;28;20402;-74
2022/12/06 09:01:32;;;;;;;17.80;11.00;;;4.40;99.90;;;3.22;100.00;97430.66;5092181;28;20410;-74
2022/12/06 09:03:59;;;;;;;16.35;11.30;;;4.40;99.90;;;3.27;100.00;97438.69;5106904;28;20482;-74
2022/12/06 09:06:26;;;;;;;19.75;11.95;;;4.50;99.90;;;3.31;100.00;97441.69;5091916;28;20406;-73
2022/12/06 09:08:54;;;;;;;17.33;11.40;;;4.50;99.90;;;3.33;100.00;97439.66;5092218;28;20439;-75
2022/12/06 09:11:21;;;;;;;19.80;11.90;;;4.50;99.90;;;3.35;100.00;97445.50;5426742;22;20468;-70
2022/12/06 09:13:47;;;;;;;17.92;11.80;;;4.50;99.90;;;3.38;100.00;97450.34;5110524;28;20812;-72
2022/12/06 09:16:17;;;;;;;20.08;12.02;;;4.50;99.90;;;3.35;100.00;97448.94;5112062;28;20392;-73
2022/12/06 09:18:44;;;;;;;19.35;11.70;;;4.50;99.90;;;3.36;100.00;97447.94;5111724;28;20439;-75
2022/12/06 09:21:13;;;;;;;18.33;11.55;;;4.60;99.90;;;3.39;100.00;97444.88;5111851;28;20409;-74
2022/12/06 09:23:39;;;;;;;17.30;11.20;;;4.60;99.90;;;3.43;100.00;97443.50;5107832;27;20952;-74
2022/12/06 09:26:07;;;;;;;17.63;12.25;;;4.60;99.90;;;3.47;100.00;97443.88;5114189;27;20919;-72
2022/12/06 09:28:36;;;;;;;19.75;12.48;;;4.60;99.90;;;3.49;100.00;97452.34;5114292;27;20426;-71
2022/12/06 09:31:03;;;;;;;16.88;11.10;;;4.70;99.90;;;3.53;100.00;97450.13;5107317;27;20453;-74
2022/12/06 09:33:29;;;;;;;19.27;12.00;;;4.70;99.90;;;3.57;100.00;97446.06;5101324;27;20412;-74
2022/12/06 09:35:57;;;;;;;19.42;12.05;;;4.70;99.90;;;3.61;100.00;97447.28;5118457;27;20411;-75
2022/12/06 09:38:27;;;;;;;17.75;11.25;;;4.80;99.90;;;3.63;100.00;97443.44;5099642;28;20895;-76
2022/12/06 09:41:06;;;;;;;20.87;12.37;;;4.80;99.90;;;3.66;100.00;97450.88;5100820;28;20980;-73
2022/12/06 09:43:49;;;;;;;18.33;11.98;;;4.80;99.90;;;3.69;100.00;97452.28;5100917;28;21026;-73
2022/12/06 09:46:35;;;;;;;18.75;12.32;;;4.90;99.90;;;3.69;100.00;97449.66;5101015;28;20398;-73
2022/12/06 09:49:35;;;;;;;22.00;13.10;;;4.80;99.90;;;3.69;100.00;97449.66;5101739;28;20412;-74
2022/12/06 09:52:28;;;;;;;20.08;13.05;;;4.90;99.90;;;3.68;100.00;97450.69;5101226;28;20420;-72
2022/12/06 09:55:28;;;;;;;21.20;13.57;;;4.90;99.90;;;3.65;100.00;97449.28;5100895;28;20396;-72
2022/12/06 09:58:05;;;;;;;23.58;14.60;;;4.80;99.90;;;3.65;100.00;97448.47;5098819;28;20471;-71
2022/12/06 10:00:55;;;;;;;22.23;13.70;;;4.80;99.90;;;3.63;100.00;97443.44;5101371;28;20396;-71
2022/12/06 10:04:01;;;;;;;23.75;14.25;;;4.80;99.90;;;3.63;100.00;97446.06;5100522;28;20404;-74
2022/12/06 10:06:38;;;;;;;27.42;15.90;;;4.80;99.90;;;3.62;100.00;97446.25;5101649;28;20568;-73
2022/12/06 10:09:21;;;;;;;33.55;19.50;;;4.80;99.90;;;3.64;100.00;97442.44;5099068;28;20420;-72
2022/12/06 10:12:08;;;;;;;35.80;20.70;;;4.80;99.90;;;3.62;100.00;97447.06;5098766;28;20425;-74
2022/12/06 10:14:58;;;;;;;40.00;20.77;;;4.80;99.90;;;3.57;100.00;97436.41;5099240;28;20910;-74
2022/12/06 10:17:45;;;;;;;36.30;20.47;;;4.70;99.90;;;3.56;100.00;97441.84;5101024;28;20389;-74
2022/12/06 10:20:19;;;;;;;33.47;19.30;;;4.70;99.90;;;3.60;100.00;97437.81;5101185;28;20388;-74
2022/12/06 10:23:04;;;;;;;38.05;21.00;;;4.80;99.90;;;3.64;100.00;97437.19;5100159;28;20395;-72
2022/12/06 10:25:39;;;;;;;32.42;19.30;;;4.80;99.90;;;3.67;100.00;97441.22;5099409;28;20409;-72
2022/12/06 10:28:11;;;;;;;33.92;19.95;;;4.80;99.90;;;3.61;100.00;97436.81;5098721;28;20882;-72
2022/12/06 10:30:47;;;;;;;31.65;19.05;;;4.80;99.90;;;3.57;100.00;97433.78;5099564;28;20445;-70
2022/12/06 10:33:29;;;;;;;31.80;19.50;;;4.70;99.90;;;3.64;100.00;97442.44;5099918;28;20991;-72
2022/12/06 10:36:00;;;;;;;35.55;20.67;;;4.80;99.90;;;3.58;100.00;97443.25;5100972;28;20393;-71
2022/12/06 10:38:34;;;;;;;31.77;18.42;;;4.80;99.90;;;3.60;100.00;97433.41;5104193;28;20396;-73
2022/12/06 10:41:10;;;;;;;32.78;19.38;;;4.80;99.90;;;3.48;100.00;97430.59;5110286;28;20411;-73
2022/12/06 10:43:48;;;;;;;33.55;19.60;;;4.70;99.90;;;3.54;100.00;97428.16;5108202;22;20426;-75
2022/12/06 10:49:21;;;;;;;33.05;18.20;;;4.70;99.90;;;3.45;100.00;97428.41;5090252;28;20401;-75
2022/12/06 10:51:55;;;;;;;34.28;18.55;;;4.60;99.90;;;3.52;100.00;97415.28;5089891;28;20494;-79